sensor_id;sensor_type;location;lat;lon;timestamp;temperature;humidity
14682;DHT22;7429;52.498;13.480;2023-02-14T00:00:04;6.20;99.90
14682;DHT22;7429;52.498;13.480;2023-02-14T00:03:09;6.20;99.90
14682;DHT22;7429;52.498;13.480;2023-02-14T00:06:13;6.20;99.90
14682;DHT22;7429;52.498;13.480;2023-02-14T00:09:18;6.10;99.90
14682;DHT22;7429;52.498;13.480;2023-02-14T00:12:21;6.20;99.90
14682;DHT22;7429;52.498;13.480;2023-02-14T00:15:26;6.10;99.90
14682;DHT22;7429;52.498;13.480;2023-02-14T00:18:29;6.10;99.90
14682;DHT22;7429;52.498;13.480;2023-02-14T00:21:47;6.10;99.90
14682;DHT22;7429;52.498;13.480;2023-02-14T00:24:51;6.10;99.90
14682;DHT22;7429;52.498;13.480;2023-02-14T00:27:54;6.10;99.90
14682;DHT22;7429;52.498;13.480;2023-02-14T00:30:59;6.00;99.90
14682;DHT22;7429;52.498;13.480;2023-02-14T00:34:04;6.10;99.90
14682;DHT22;7429;52.498;13.480;2023-02-14T00:37:07;6.00;99.90
14682;DHT22;7429;52.498;13.480;2023-02-14T00:40:10;6.00;99.90
14682;DHT22;7429;52.498;13.480;2023-02-14T00:43:16;6.00;99.90
14682;DHT22;7429;52.498;13.480;2023-02-14T00:46:22;6.10;99.90
14682;DHT22;7429;52.498;13.480;2023-02-14T00:49:26;6.10;99.90
14682;DHT22;7429;52.498;13.480;2023-02-14T00:52:32;6.20;99.90
14682;DHT22;7429;52.498;13.480;2023-02-14T00:55:36;6.20;99.90
14682;DHT22;7429;52.498;13.480;2023-02-14T00:58:39;6.10;99.90
14682;DHT22;7429;52.498;13.480;2023-02-14T01:01:44;6.10;99.90
14682;DHT22;7429;52.498;13.480;2023-02-14T01:04:48;6.10;99.90
14682;DHT22;7429;52.498;13.480;2023-02-14T01:07:51;6.10;99.90
14682;DHT22;7429;52.498;13.480;2023-02-14T01:11:05;6.10;99.90
14682;DHT22;7429;52.498;13.480;2023-02-14T01:14:09;6.00;99.90
14682;DHT22;7429;52.498;13.480;2023-02-14T01:17:14;6.00;99.90
14682;DHT22;7429;52.498;13.480;2023-02-14T01:20:17;6.00;99.90
14682;DHT22;7429;52.498;13.480;2023-02-14T01:23:22;5.90;99.90
14682;DHT22;7429;52.498;13.480;2023-02-14T01:26:27;5.90;99.90
14682;DHT22;7429;52.498;13.480;2023-02-14T01:29:30;6.00;99.90
14682;DHT22;7429;52.498;13.480;2023-02-14T01:32:35;6.00;99.90
14682;DHT22;7429;52.498;13.480;2023-02-14T01:35:39;5.90;99.90
14682;DHT22;7429;52.498;13.480;2023-02-14T01:38:42;5.90;99.90
14682;DHT22;7429;52.498;13.480;2023-02-14T01:41:49;5.90;99.90
14682;DHT22;7429;52.498;13.480;2023-02-14T01:44:58;5.90;99.90
14682;DHT22;7429;52.498;13.480;2023-02-14T01:48:04;6.00;99.90
14682;DHT22;7429;52.498;13.480;2023-02-14T01:51:07;6.00;99.90
14682;DHT22;7429;52.498;13.480;2023-02-14T01:54:11;6.00;99.90
14682;DHT22;7429;52.498;13.480;2023-02-14T01:57:16;6.00;99.90
14682;DHT22;7429;52.498;13.480;2023-02-14T02:00:21;5.90;99.90
14682;DHT22;7429;52.498;13.480;2023-02-14T02:03:46;6.00;99.90
14682;DHT22;7429;52.498;13.480;2023-02-14T02:06:54;6.00;99.90
14682;DHT22;7429;52.498;13.480;2023-02-14T02:10:03;6.00;99.90
14682;DHT22;7429;52.498;13.480;2023-02-14T02:13:15;5.90;99.90
14682;DHT22;7429;52.498;13.480;2023-02-14T02:16:41;5.90;99.90
14682;DHT22;7429;52.498;13.480;2023-02-14T02:24:27;5.90;99.90
14682;DHT22;7429;52.498;13.480;2023-02-14T02:27:45;5.90;99.90
14682;DHT22;7429;52.498;13.480;2023-02-14T02:31:13;6.00;99.90
14682;DHT22;7429;52.498;13.480;2023-02-14T02:35:03;6.10;99.90
14682;DHT22;7429;52.498;13.480;2023-02-14T02:38:31;6.00;99.90
14682;DHT22;7429;52.498;13.480;2023-02-14T02:41:55;6.00;99.90
14682;DHT22;7429;52.498;13.480;2023-02-14T02:45:11;6.10;99.90
14682;DHT22;7429;52.498;13.480;2023-02-14T02:48:21;6.00;99.90
14682;DHT22;7429;52.498;13.480;2023-02-14T02:51:32;6.00;99.90
14682;DHT22;7429;52.498;13.480;2023-02-14T02:55:02;6.00;99.90
14682;DHT22;7429;52.498;13.480;2023-02-14T02:58:07;5.90;99.90
14682;DHT22;7429;52.498;13.480;2023-02-14T03:01:13;5.90;99.90
14682;DHT22;7429;52.498;13.480;2023-02-14T03:04:19;5.90;99.90
14682;DHT22;7429;52.498;13.480;2023-02-14T03:07:42;5.90;99.90
14682;DHT22;7429;52.498;13.480;2023-02-14T03:10:46;5.90;99.90
14682;DHT22;7429;52.498;13.480;2023-02-14T03:14:05;5.90;99.90
14682;DHT22;7429;52.498;13.480;2023-02-14T03:17:21;5.80;99.90
14682;DHT22;7429;52.498;13.480;2023-02-14T03:20:51;5.90;99.90
14682;DHT22;7429;52.498;13.480;2023-02-14T03:24:03;5.90;99.90
14682;DHT22;7429;52.498;13.480;2023-02-14T03:27:15;5.90;99.90
14682;DHT22;7429;52.498;13.480;2023-02-14T03:30:27;5.90;99.90
14682;DHT22;7429;52.498;13.480;2023-02-14T03:33:44;5.90;99.90
14682;DHT22;7429;52.498;13.480;2023-02-14T03:36:55;5.90;99.90
14682;DHT22;7429;52.498;13.480;2023-02-14T03:40:07;5.90;99.90
14682;DHT22;7429;52.498;13.480;2023-02-14T03:43:15;5.90;99.90
14682;DHT22;7429;52.498;13.480;2023-02-14T03:46:24;5.80;99.90
14682;DHT22;7429;52.498;13.480;2023-02-14T03:49:32;5.90;99.90
14682;DHT22;7429;52.498;13.480;2023-02-14T03:52:38;5.90;99.90
14682;DHT22;7429;52.498;13.480;2023-02-14T03:55:53;5.90;99.90
14682;DHT22;7429;52.498;13.480;2023-02-14T03:58:59;5.90;99.90
14682;DHT22;7429;52.498;13.480;2023-02-14T04:02:14;5.80;99.90
14682;DHT22;7429;52.498;13.480;2023-02-14T04:05:23;5.90;99.90
14682;DHT22;7429;52.498;13.480;2023-02-14T04:08:28;5.80;99.90
14682;DHT22;7429;52.498;13.480;2023-02-14T04:11:33;5.80;99.90
14682;DHT22;7429;52.498;13.480;2023-02-14T04:14:36;5.70;99.90
14682;DHT22;7429;52.498;13.480;2023-02-14T04:17:40;5.80;99.90
14682;DHT22;7429;52.498;13.480;2023-02-14T04:21:00;5.80;99.90
14682;DHT22;7429;52.498;13.480;2023-02-14T04:24:06;5.80;99.90
14682;DHT22;7429;52.498;13.480;2023-02-14T04:27:17;5.80;99.90
14682;DHT22;7429;52.498;13.480;2023-02-14T04:30:28;5.70;99.90
14682;DHT22;7429;52.498;13.480;2023-02-14T04:33:34;5.80;99.90
14682;DHT22;7429;52.498;13.480;2023-02-14T04:36:40;5.80;99.90
14682;DHT22;7429;52.498;13.480;2023-02-14T04:39:44;5.70;99.90
14682;DHT22;7429;52.498;13.480;2023-02-14T04:42:49;5.70;99.90
14682;DHT22;7429;52.498;13.480;2023-02-14T04:45:52;5.70;99.90
14682;DHT22;7429;52.498;13.480;2023-02-14T04:48:55;5.70;99.90
14682;DHT22;7429;52.498;13.480;2023-02-14T04:51:58;5.60;99.90
14682;DHT22;7429;52.498;13.480;2023-02-14T04:55:01;5.60;99.90
14682;DHT22;7429;52.498;13.480;2023-02-14T04:58:06;5.70;99.90
14682;DHT22;7429;52.498;13.480;2023-02-14T05:01:10;5.70;99.90
14682;DHT22;7429;52.498;13.480;2023-02-14T05:04:13;5.70;99.90
14682;DHT22;7429;52.498;13.480;2023-02-14T05:07:17;5.70;99.90
14682;DHT22;7429;52.498;13.480;2023-02-14T05:10:20;5.60;99.90
14682;DHT22;7429;52.498;13.480;2023-02-14T05:13:27;5.60;99.90
14682;DHT22;7429;52.498;13.480;2023-02-14T05:16:30;5.60;99.90
14682;DHT22;7429;52.498;13.480;2023-02-14T05:19:34;5.60;99.90
14682;DHT22;7429;52.498;13.480;2023-02-14T05:22:37;5.60;99.90
14682;DHT22;7429;52.498;13.480;2023-02-14T05:25:40;5.60;99.90
14682;DHT22;7429;52.498;13.480;2023-02-14T05:28:47;5.50;99.90
14682;DHT22;7429;52.498;13.480;2023-02-14T05:31:51;5.60;99.90
14682;DHT22;7429;52.498;13.480;2023-02-14T05:34:54;5.60;99.90
14682;DHT22;7429;52.498;13.480;2023-02-14T05:37:57;5.60;99.90
14682;DHT22;7429;52.498;13.480;2023-02-14T05:41:01;5.60;99.90
14682;DHT22;7429;52.498;13.480;2023-02-14T05:44:08;5.60;99.90
14682;DHT22;7429;52.498;13.480;2023-02-14T05:47:12;5.60;99.90
14682;DHT22;7429;52.498;13.480;2023-02-14T05:50:15;5.50;99.90
14682;DHT22;7429;52.498;13.480;2023-02-14T05:53:19;5.60;99.90
14682;DHT22;7429;52.498;13.480;2023-02-14T05:56:22;5.60;99.90
14682;DHT22;7429;52.498;13.480;2023-02-14T05:59:27;5.60;99.90
14682;DHT22;7429;52.498;13.480;2023-02-14T06:02:30;5.60;99.90
14682;DHT22;7429;52.498;13.480;2023-02-14T06:05:33;5.60;99.90
14682;DHT22;7429;52.498;13.480;2023-02-14T06:08:36;5.60;99.90
14682;DHT22;7429;52.498;13.480;2023-02-14T06:11:40;5.60;99.90
14682;DHT22;7429;52.498;13.480;2023-02-14T06:14:44;5.60;99.90
14682;DHT22;7429;52.498;13.480;2023-02-14T06:17:50;5.60;99.90
14682;DHT22;7429;52.498;13.480;2023-02-14T06:20:54;5.50;99.90
14682;DHT22;7429;52.498;13.480;2023-02-14T06:23:58;5.60;99.90
14682;DHT22;7429;52.498;13.480;2023-02-14T06:27:01;5.60;99.90
14682;DHT22;7429;52.498;13.480;2023-02-14T06:30:08;5.50;99.90
14682;DHT22;7429;52.498;13.480;2023-02-14T06:33:12;5.60;99.90
14682;DHT22;7429;52.498;13.480;2023-02-14T06:36:15;5.50;99.90
14682;DHT22;7429;52.498;13.480;2023-02-14T06:39:18;5.50;99.90
14682;DHT22;7429;52.498;13.480;2023-02-14T06:42:22;5.50;99.90
14682;DHT22;7429;52.498;13.480;2023-02-14T06:45:26;5.50;99.90
14682;DHT22;7429;52.498;13.480;2023-02-14T06:48:29;5.50;99.90
14682;DHT22;7429;52.498;13.480;2023-02-14T06:51:33;5.60;99.90
14682;DHT22;7429;52.498;13.480;2023-02-14T06:54:36;5.50;99.90
14682;DHT22;7429;52.498;13.480;2023-02-14T06:57:41;5.50;99.90
14682;DHT22;7429;52.498;13.480;2023-02-14T07:00:45;5.60;99.90
14682;DHT22;7429;52.498;13.480;2023-02-14T07:03:49;5.60;99.90
14682;DHT22;7429;52.498;13.480;2023-02-14T07:06:52;5.70;99.90
14682;DHT22;7429;52.498;13.480;2023-02-14T07:09:55;5.70;99.90
14682;DHT22;7429;52.498;13.480;2023-02-14T07:12:59;5.70;99.90
14682;DHT22;7429;52.498;13.480;2023-02-14T07:16:04;5.60;99.90
14682;DHT22;7429;52.498;13.480;2023-02-14T07:19:07;5.60;99.90
14682;DHT22;7429;52.498;13.480;2023-02-14T07:22:11;5.60;99.90
14682;DHT22;7429;52.498;13.480;2023-02-14T07:25:14;5.60;99.90
14682;DHT22;7429;52.498;13.480;2023-02-14T07:28:17;5.60;99.90
14682;DHT22;7429;52.498;13.480;2023-02-14T07:31:22;5.60;99.90
14682;DHT22;7429;52.498;13.480;2023-02-14T07:34:25;5.70;99.90
14682;DHT22;7429;52.498;13.480;2023-02-14T07:37:30;5.60;99.90
14682;DHT22;7429;52.498;13.480;2023-02-14T07:40:34;5.70;99.90
14682;DHT22;7429;52.498;13.480;2023-02-14T07:43:37;5.70;99.90
14682;DHT22;7429;52.498;13.480;2023-02-14T07:46:42;5.70;99.90
14682;DHT22;7429;52.498;13.480;2023-02-14T07:49:48;5.70;99.90
14682;DHT22;7429;52.498;13.480;2023-02-14T07:52:51;5.70;99.90
14682;DHT22;7429;52.498;13.480;2023-02-14T07:55:55;5.70;99.90
14682;DHT22;7429;52.498;13.480;2023-02-14T07:59:00;5.70;99.90
14682;DHT22;7429;52.498;13.480;2023-02-14T08:02:05;5.70;99.90
14682;DHT22;7429;52.498;13.480;2023-02-14T08:05:08;5.80;99.90
14682;DHT22;7429;52.498;13.480;2023-02-14T08:08:12;5.80;99.90
14682;DHT22;7429;52.498;13.480;2023-02-14T08:11:15;5.80;99.90
14682;DHT22;7429;52.498;13.480;2023-02-14T08:14:39;5.80;99.90
14682;DHT22;7429;52.498;13.480;2023-02-14T08:17:44;5.80;99.90
14682;DHT22;7429;52.498;13.480;2023-02-14T08:20:48;5.90;99.90
14682;DHT22;7429;52.498;13.480;2023-02-14T08:23:51;5.80;99.90
14682;DHT22;7429;52.498;13.480;2023-02-14T08:26:55;5.80;99.90
14682;DHT22;7429;52.498;13.480;2023-02-14T08:29:58;5.90;99.90
14682;DHT22;7429;52.498;13.480;2023-02-14T08:33:03;5.80;99.90
14682;DHT22;7429;52.498;13.480;2023-02-14T08:36:07;5.90;99.90
14682;DHT22;7429;52.498;13.480;2023-02-14T08:39:10;5.90;99.90
14682;DHT22;7429;52.498;13.480;2023-02-14T08:42:13;5.90;99.90
14682;DHT22;7429;52.498;13.480;2023-02-14T08:45:16;5.90;99.90
14682;DHT22;7429;52.498;13.480;2023-02-14T08:48:21;5.90;99.90
14682;DHT22;7429;52.498;13.480;2023-02-14T08:51:26;5.90;99.90
14682;DHT22;7429;52.498;13.480;2023-02-14T08:54:30;6.00;99.90
14682;DHT22;7429;52.498;13.480;2023-02-14T08:57:33;6.00;99.90
14682;DHT22;7429;52.498;13.480;2023-02-14T09:00:36;6.00;99.90
14682;DHT22;7429;52.498;13.480;2023-02-14T09:03:41;6.10;99.90
14682;DHT22;7429;52.498;13.480;2023-02-14T09:06:45;6.10;99.90
14682;DHT22;7429;52.498;13.480;2023-02-14T09:09:49;6.00;99.90
14682;DHT22;7429;52.498;13.480;2023-02-14T09:12:52;6.00;99.90
14682;DHT22;7429;52.498;13.480;2023-02-14T09:15:55;6.10;99.90
14682;DHT22;7429;52.498;13.480;2023-02-14T09:19:00;6.20;99.90
14682;DHT22;7429;52.498;13.480;2023-02-14T09:22:04;6.10;99.90
14682;DHT22;7429;52.498;13.480;2023-02-14T09:25:08;6.20;99.90
14682;DHT22;7429;52.498;13.480;2023-02-14T09:28:12;6.20;99.90
14682;DHT22;7429;52.498;13.480;2023-02-14T09:31:17;6.20;99.90
14682;DHT22;7429;52.498;13.480;2023-02-14T09:34:23;6.30;99.90
14682;DHT22;7429;52.498;13.480;2023-02-14T09:37:26;6.40;99.90
14682;DHT22;7429;52.498;13.480;2023-02-14T09:40:48;6.40;99.90
14682;DHT22;7429;52.498;13.480;2023-02-14T09:43:58;6.50;99.90
14682;DHT22;7429;52.498;13.480;2023-02-14T09:47:06;6.50;99.90
14682;DHT22;7429;52.498;13.480;2023-02-14T09:50:21;6.50;99.90
14682;DHT22;7429;52.498;13.480;2023-02-14T09:53:28;6.60;99.90
14682;DHT22;7429;52.498;13.480;2023-02-14T09:56:38;6.70;99.90
14682;DHT22;7429;52.498;13.480;2023-02-14T09:59:58;6.70;99.90
14682;DHT22;7429;52.498;13.480;2023-02-14T10:03:20;6.70;99.90
14682;DHT22;7429;52.498;13.480;2023-02-14T10:06:49;6.70;99.90
14682;DHT22;7429;52.498;13.480;2023-02-14T10:09:56;6.70;99.90
14682;DHT22;7429;52.498;13.480;2023-02-14T10:13:09;6.70;99.90
14682;DHT22;7429;52.498;13.480;2023-02-14T10:16:21;6.60;99.90
14682;DHT22;7429;52.498;13.480;2023-02-14T10:19:32;6.70;99.90
14682;DHT22;7429;52.498;13.480;2023-02-14T10:22:42;6.70;99.90
14682;DHT22;7429;52.498;13.480;2023-02-14T10:25:53;6.70;99.90
14682;DHT22;7429;52.498;13.480;2023-02-14T10:29:02;6.80;99.90
14682;DHT22;7429;52.498;13.480;2023-02-14T10:32:12;6.80;99.90
14682;DHT22;7429;52.498;13.480;2023-02-14T10:35:23;6.90;99.90
14682;DHT22;7429;52.498;13.480;2023-02-14T10:38:41;6.90;99.90
14682;DHT22;7429;52.498;13.480;2023-02-14T10:41:55;7.00;99.90
14682;DHT22;7429;52.498;13.480;2023-02-14T10:45:09;7.00;99.90
14682;DHT22;7429;52.498;13.480;2023-02-14T10:48:24;7.00;99.90
14682;DHT22;7429;52.498;13.480;2023-02-14T10:51:36;7.00;99.90
14682;DHT22;7429;52.498;13.480;2023-02-14T10:54:45;7.10;99.90
14682;DHT22;7429;52.498;13.480;2023-02-14T10:57:54;7.00;99.90
14682;DHT22;7429;52.498;13.480;2023-02-14T11:01:01;7.00;99.90
14682;DHT22;7429;52.498;13.480;2023-02-14T11:04:08;7.00;99.90
14682;DHT22;7429;52.498;13.480;2023-02-14T11:07:14;7.10;99.90
14682;DHT22;7429;52.498;13.480;2023-02-14T11:10:24;7.10;99.90
14682;DHT22;7429;52.498;13.480;2023-02-14T11:13:35;7.20;99.90
14682;DHT22;7429;52.498;13.480;2023-02-14T11:16:39;7.10;99.90
14682;DHT22;7429;52.498;13.480;2023-02-14T11:19:55;7.10;99.90
14682;DHT22;7429;52.498;13.480;2023-02-14T11:23:18;7.10;99.90
14682;DHT22;7429;52.498;13.480;2023-02-14T11:26:25;7.10;99.90
14682;DHT22;7429;52.498;13.480;2023-02-14T11:29:35;7.10;99.90
14682;DHT22;7429;52.498;13.480;2023-02-14T11:32:48;7.10;99.90
14682;DHT22;7429;52.498;13.480;2023-02-14T11:35:57;7.20;99.90
14682;DHT22;7429;52.498;13.480;2023-02-14T11:39:06;7.20;99.90
14682;DHT22;7429;52.498;13.480;2023-02-14T11:42:39;7.20;99.90
14682;DHT22;7429;52.498;13.480;2023-02-14T11:45:46;7.30;99.90
14682;DHT22;7429;52.498;13.480;2023-02-14T11:48:55;7.30;99.90
14682;DHT22;7429;52.498;13.480;2023-02-14T11:52:08;7.30;99.90
14682;DHT22;7429;52.498;13.480;2023-02-14T11:55:22;7.30;99.90
14682;DHT22;7429;52.498;13.480;2023-02-14T11:58:33;7.40;99.90
14682;DHT22;7429;52.498;13.480;2023-02-14T12:01:37;7.30;99.90
14682;DHT22;7429;52.498;13.480;2023-02-14T12:04:43;7.30;99.90
14682;DHT22;7429;52.498;13.480;2023-02-14T12:07:49;7.20;99.90
14682;DHT22;7429;52.498;13.480;2023-02-14T12:11:02;7.20;99.90
14682;DHT22;7429;52.498;13.480;2023-02-14T12:14:19;7.30;99.90
14682;DHT22;7429;52.498;13.480;2023-02-14T12:17:28;7.40;99.90
14682;DHT22;7429;52.498;13.480;2023-02-14T12:20:41;7.40;99.90
14682;DHT22;7429;52.498;13.480;2023-02-14T12:23:52;7.40;99.90
14682;DHT22;7429;52.498;13.480;2023-02-14T12:27:09;7.40;99.90
14682;DHT22;7429;52.498;13.480;2023-02-14T12:30:24;7.40;99.90
14682;DHT22;7429;52.498;13.480;2023-02-14T12:33:31;7.40;99.90
14682;DHT22;7429;52.498;13.480;2023-02-14T12:36:54;7.30;99.90
14682;DHT22;7429;52.498;13.480;2023-02-14T12:40:19;7.30;99.90
14682;DHT22;7429;52.498;13.480;2023-02-14T12:43:39;7.20;99.90
14682;DHT22;7429;52.498;13.480;2023-02-14T12:47:13;7.20;99.90
14682;DHT22;7429;52.498;13.480;2023-02-14T12:50:31;7.10;99.90
14682;DHT22;7429;52.498;13.480;2023-02-14T12:53:45;7.10;99.90
14682;DHT22;7429;52.498;13.480;2023-02-14T12:57:01;7.20;99.90
14682;DHT22;7429;52.498;13.480;2023-02-14T13:00:20;7.20;99.90
14682;DHT22;7429;52.498;13.480;2023-02-14T13:03:39;7.20;99.90
14682;DHT22;7429;52.498;13.480;2023-02-14T13:06:58;7.20;99.90
14682;DHT22;7429;52.498;13.480;2023-02-14T13:10:14;7.20;99.90
14682;DHT22;7429;52.498;13.480;2023-02-14T13:13:30;7.20;99.90
14682;DHT22;7429;52.498;13.480;2023-02-14T13:16:43;7.20;99.90
14682;DHT22;7429;52.498;13.480;2023-02-14T13:19:56;7.30;99.90
14682;DHT22;7429;52.498;13.480;2023-02-14T13:23:07;7.30;99.90
14682;DHT22;7429;52.498;13.480;2023-02-14T13:26:17;7.30;99.90
14682;DHT22;7429;52.498;13.480;2023-02-14T13:29:23;7.20;99.90
14682;DHT22;7429;52.498;13.480;2023-02-14T13:32:31;7.20;99.90
14682;DHT22;7429;52.498;13.480;2023-02-14T13:35:39;7.30;99.90
14682;DHT22;7429;52.498;13.480;2023-02-14T13:38:44;7.30;99.90
14682;DHT22;7429;52.498;13.480;2023-02-14T13:41:49;7.30;99.90
14682;DHT22;7429;52.498;13.480;2023-02-14T13:44:52;7.30;99.90
14682;DHT22;7429;52.498;13.480;2023-02-14T13:48:02;7.30;99.90
14682;DHT22;7429;52.498;13.480;2023-02-14T13:51:08;7.30;99.90
14682;DHT22;7429;52.498;13.480;2023-02-14T13:54:28;7.20;99.90
14682;DHT22;7429;52.498;13.480;2023-02-14T13:57:37;7.30;99.90
14682;DHT22;7429;52.498;13.480;2023-02-14T14:00:43;7.30;99.90
14682;DHT22;7429;52.498;13.480;2023-02-14T14:03:56;7.30;99.90
14682;DHT22;7429;52.498;13.480;2023-02-14T14:07:25;7.40;99.90
14682;DHT22;7429;52.498;13.480;2023-02-14T14:10:42;7.30;99.90
14682;DHT22;7429;52.498;13.480;2023-02-14T14:13:54;7.40;99.90
14682;DHT22;7429;52.498;13.480;2023-02-14T14:16:59;7.40;99.90
14682;DHT22;7429;52.498;13.480;2023-02-14T14:20:37;7.40;99.90
14682;DHT22;7429;52.498;13.480;2023-02-14T14:23:43;7.40;99.90
14682;DHT22;7429;52.498;13.480;2023-02-14T14:26:48;7.40;99.90
14682;DHT22;7429;52.498;13.480;2023-02-14T14:29:54;7.30;99.90
14682;DHT22;7429;52.498;13.480;2023-02-14T14:33:12;7.20;99.90
14682;DHT22;7429;52.498;13.480;2023-02-14T14:36:22;7.20;99.90
14682;DHT22;7429;52.498;13.480;2023-02-14T14:39:29;7.10;99.90
14682;DHT22;7429;52.498;13.480;2023-02-14T14:42:36;7.10;99.90
14682;DHT22;7429;52.498;13.480;2023-02-14T14:45:45;7.10;99.90
14682;DHT22;7429;52.498;13.480;2023-02-14T14:48:50;7.10;99.90
14682;DHT22;7429;52.498;13.480;2023-02-14T14:51:59;7.00;99.90
14682;DHT22;7429;52.498;13.480;2023-02-14T14:55:04;7.00;99.90
14682;DHT22;7429;52.498;13.480;2023-02-14T14:58:31;7.10;99.90
14682;DHT22;7429;52.498;13.480;2023-02-14T15:01:40;7.10;99.90
14682;DHT22;7429;52.498;13.480;2023-02-14T15:04:46;7.20;99.90
14682;DHT22;7429;52.498;13.480;2023-02-14T15:07:51;7.20;99.90
14682;DHT22;7429;52.498;13.480;2023-02-14T15:11:02;7.20;99.90
14682;DHT22;7429;52.498;13.480;2023-02-14T15:14:14;7.10;99.90
14682;DHT22;7429;52.498;13.480;2023-02-14T15:17:20;7.10;99.90
14682;DHT22;7429;52.498;13.480;2023-02-14T15:20:27;7.10;99.90
14682;DHT22;7429;52.498;13.480;2023-02-14T15:23:32;7.10;99.90
14682;DHT22;7429;52.498;13.480;2023-02-14T15:26:36;7.00;99.90
14682;DHT22;7429;52.498;13.480;2023-02-14T15:29:39;7.00;99.90
14682;DHT22;7429;52.498;13.480;2023-02-14T15:32:46;6.90;99.90
14682;DHT22;7429;52.498;13.480;2023-02-14T15:35:53;7.00;99.90
14682;DHT22;7429;52.498;13.480;2023-02-14T15:38:59;6.90;99.90
14682;DHT22;7429;52.498;13.480;2023-02-14T15:42:19;6.90;99.90
14682;DHT22;7429;52.498;13.480;2023-02-14T15:45:29;6.80;99.90
14682;DHT22;7429;52.498;13.480;2023-02-14T15:48:33;6.70;99.90
14682;DHT22;7429;52.498;13.480;2023-02-14T15:51:37;6.70;99.90
14682;DHT22;7429;52.498;13.480;2023-02-14T15:54:44;6.80;99.90
14682;DHT22;7429;52.498;13.480;2023-02-14T15:57:53;6.80;99.90
14682;DHT22;7429;52.498;13.480;2023-02-14T16:01:02;6.70;99.90
14682;DHT22;7429;52.498;13.480;2023-02-14T16:04:06;6.70;99.90
14682;DHT22;7429;52.498;13.480;2023-02-14T16:07:21;6.70;99.90
14682;DHT22;7429;52.498;13.480;2023-02-14T16:10:30;6.80;99.90
14682;DHT22;7429;52.498;13.480;2023-02-14T16:13:35;6.80;99.90
14682;DHT22;7429;52.498;13.480;2023-02-14T16:16:57;6.80;99.90
14682;DHT22;7429;52.498;13.480;2023-02-14T16:20:22;6.70;99.90
14682;DHT22;7429;52.498;13.480;2023-02-14T16:23:30;6.70;99.90
14682;DHT22;7429;52.498;13.480;2023-02-14T16:26:37;6.60;99.90
14682;DHT22;7429;52.498;13.480;2023-02-14T16:29:41;6.50;99.90
14682;DHT22;7429;52.498;13.480;2023-02-14T16:32:47;6.50;99.90
14682;DHT22;7429;52.498;13.480;2023-02-14T16:35:56;6.40;99.90
14682;DHT22;7429;52.498;13.480;2023-02-14T16:39:13;6.30;99.90
14682;DHT22;7429;52.498;13.480;2023-02-14T16:42:19;6.30;99.90
14682;DHT22;7429;52.498;13.480;2023-02-14T16:45:22;6.20;99.90
14682;DHT22;7429;52.498;13.480;2023-02-14T16:48:28;6.20;99.90
14682;DHT22;7429;52.498;13.480;2023-02-14T16:51:34;6.20;99.90
14682;DHT22;7429;52.498;13.480;2023-02-14T16:54:39;6.20;99.90
14682;DHT22;7429;52.498;13.480;2023-02-14T16:57:46;6.10;99.90
14682;DHT22;7429;52.498;13.480;2023-02-14T17:00:50;6.10;99.90
14682;DHT22;7429;52.498;13.480;2023-02-14T17:03:53;6.20;99.90
14682;DHT22;7429;52.498;13.480;2023-02-14T17:06:58;6.10;99.90
14682;DHT22;7429;52.498;13.480;2023-02-14T17:10:09;6.10;99.90
14682;DHT22;7429;52.498;13.480;2023-02-14T17:13:18;6.10;99.90
14682;DHT22;7429;52.498;13.480;2023-02-14T17:16:23;6.10;99.90
14682;DHT22;7429;52.498;13.480;2023-02-14T17:19:27;6.10;99.90
14682;DHT22;7429;52.498;13.480;2023-02-14T17:22:30;6.10;99.90
14682;DHT22;7429;52.498;13.480;2023-02-14T17:25:35;6.10;99.90
14682;DHT22;7429;52.498;13.480;2023-02-14T17:28:40;6.00;99.90
14682;DHT22;7429;52.498;13.480;2023-02-14T17:31:44;6.00;99.90
14682;DHT22;7429;52.498;13.480;2023-02-14T17:34:47;5.90;99.90
14682;DHT22;7429;52.498;13.480;2023-02-14T17:37:50;6.00;99.90
14682;DHT22;7429;52.498;13.480;2023-02-14T17:40:53;6.00;99.90
14682;DHT22;7429;52.498;13.480;2023-02-14T17:43:58;6.00;99.90
14682;DHT22;7429;52.498;13.480;2023-02-14T17:47:04;6.00;99.90
14682;DHT22;7429;52.498;13.480;2023-02-14T17:50:09;6.00;99.90
14682;DHT22;7429;52.498;13.480;2023-02-14T17:53:13;6.00;99.90
14682;DHT22;7429;52.498;13.480;2023-02-14T17:56:21;6.00;99.90
14682;DHT22;7429;52.498;13.480;2023-02-14T17:59:26;6.00;99.90
14682;DHT22;7429;52.498;13.480;2023-02-14T18:02:29;6.00;99.90
14682;DHT22;7429;52.498;13.480;2023-02-14T18:05:34;6.10;99.90
14682;DHT22;7429;52.498;13.480;2023-02-14T18:08:41;6.00;99.90
14682;DHT22;7429;52.498;13.480;2023-02-14T18:11:47;6.10;99.90
14682;DHT22;7429;52.498;13.480;2023-02-14T18:14:52;6.00;99.90
14682;DHT22;7429;52.498;13.480;2023-02-14T18:17:56;6.00;99.90
14682;DHT22;7429;52.498;13.480;2023-02-14T18:21:01;6.00;99.90
14682;DHT22;7429;52.498;13.480;2023-02-14T18:24:05;6.00;99.90
14682;DHT22;7429;52.498;13.480;2023-02-14T18:27:09;6.10;99.90
14682;DHT22;7429;52.498;13.480;2023-02-14T18:30:18;6.10;99.90
14682;DHT22;7429;52.498;13.480;2023-02-14T18:33:21;6.10;99.90
14682;DHT22;7429;52.498;13.480;2023-02-14T18:36:28;6.00;99.90
14682;DHT22;7429;52.498;13.480;2023-02-14T18:39:32;5.90;99.90
14682;DHT22;7429;52.498;13.480;2023-02-14T18:42:35;5.80;99.90
14682;DHT22;7429;52.498;13.480;2023-02-14T18:45:40;5.80;99.90
14682;DHT22;7429;52.498;13.480;2023-02-14T18:48:43;5.80;99.90
14682;DHT22;7429;52.498;13.480;2023-02-14T18:51:46;5.80;99.90
14682;DHT22;7429;52.498;13.480;2023-02-14T18:54:50;5.80;99.90
14682;DHT22;7429;52.498;13.480;2023-02-14T18:57:54;5.90;99.90
14682;DHT22;7429;52.498;13.480;2023-02-14T19:01:06;5.80;99.90
14682;DHT22;7429;52.498;13.480;2023-02-14T19:04:11;5.80;99.90
14682;DHT22;7429;52.498;13.480;2023-02-14T19:07:17;5.90;99.90
14682;DHT22;7429;52.498;13.480;2023-02-14T19:10:21;5.80;99.90
14682;DHT22;7429;52.498;13.480;2023-02-14T19:13:24;5.70;99.90
14682;DHT22;7429;52.498;13.480;2023-02-14T19:16:32;5.70;99.90
14682;DHT22;7429;52.498;13.480;2023-02-14T19:19:38;5.60;99.90
14682;DHT22;7429;52.498;13.480;2023-02-14T19:22:42;5.60;99.90
14682;DHT22;7429;52.498;13.480;2023-02-14T19:25:45;5.60;99.90
14682;DHT22;7429;52.498;13.480;2023-02-14T19:28:49;5.60;99.90
14682;DHT22;7429;52.498;13.480;2023-02-14T19:32:16;5.60;99.90
14682;DHT22;7429;52.498;13.480;2023-02-14T19:35:19;5.60;99.90
14682;DHT22;7429;52.498;13.480;2023-02-14T19:38:23;5.60;99.90
14682;DHT22;7429;52.498;13.480;2023-02-14T19:41:28;5.70;99.90
14682;DHT22;7429;52.498;13.480;2023-02-14T19:44:35;5.60;99.90
14682;DHT22;7429;52.498;13.480;2023-02-14T19:47:39;5.60;99.90
14682;DHT22;7429;52.498;13.480;2023-02-14T19:50:48;5.60;99.90
14682;DHT22;7429;52.498;13.480;2023-02-14T19:53:52;5.60;99.90
14682;DHT22;7429;52.498;13.480;2023-02-14T19:56:56;5.60;99.90
14682;DHT22;7429;52.498;13.480;2023-02-14T20:00:00;5.60;99.90
14682;DHT22;7429;52.498;13.480;2023-02-14T20:03:13;5.60;99.90
14682;DHT22;7429;52.498;13.480;2023-02-14T20:06:17;5.60;99.90
14682;DHT22;7429;52.498;13.480;2023-02-14T20:09:20;5.60;99.90